createdAt,value
2019-05-22T00:02:22.516Z,13.90
2019-05-22T00:05:01.692Z,13.80
2019-05-22T00:07:33.631Z,13.80
2019-05-22T00:10:03.774Z,13.80
2019-05-22T00:12:46.056Z,13.90
2019-05-22T00:15:08.007Z,13.80
2019-05-22T00:17:37.722Z,13.80
2019-05-22T00:20:09.234Z,13.90
2019-05-22T00:22:41.498Z,13.90
2019-05-22T00:25:15.466Z,13.90
2019-05-22T00:27:47.194Z,13.80
2019-05-22T00:30:18.350Z,13.80
2019-05-22T00:32:48.657Z,13.80
2019-05-22T00:35:21.843Z,13.80
2019-05-22T00:37:51.813Z,13.80
2019-05-22T00:40:22.543Z,13.90
2019-05-22T00:43:03.467Z,13.90
2019-05-22T00:45:25.498Z,13.90
2019-05-22T00:47:55.327Z,13.80
2019-05-22T00:50:30.058Z,13.90
2019-05-22T00:53:03.011Z,13.90
2019-05-22T00:55:44.507Z,13.90
2019-05-22T00:58:26.931Z,13.80
2019-05-22T01:01:02.316Z,13.70
2019-05-22T01:03:36.143Z,13.80
2019-05-22T01:06:08.464Z,13.80
2019-05-22T01:08:40.335Z,13.90
2019-05-22T01:11:11.742Z,13.90
2019-05-22T01:13:42.934Z,13.70
2019-05-22T01:16:15.049Z,13.70
2019-05-22T01:18:45.357Z,13.70
2019-05-22T01:21:22.035Z,13.70
2019-05-22T01:23:53.536Z,13.70
2019-05-22T01:26:25.785Z,13.60
2019-05-22T01:28:55.926Z,13.60
2019-05-22T01:31:37.347Z,13.80
2019-05-22T01:34:27.480Z,13.80
2019-05-22T01:37:01.921Z,13.80
2019-05-22T01:39:53.768Z,13.60
2019-05-22T01:42:32.053Z,13.50
2019-05-22T01:45:06.480Z,13.50
2019-05-22T01:47:44.048Z,13.50
2019-05-22T01:50:18.517Z,13.60
2019-05-22T01:52:49.636Z,13.60
2019-05-22T01:55:21.536Z,13.60
2019-05-22T01:57:53.289Z,13.70
2019-05-22T02:00:24.390Z,13.70
2019-05-22T02:02:54.735Z,13.70
2019-05-22T02:05:25.217Z,14.10
2019-05-22T02:07:56.344Z,13.90
2019-05-22T02:10:30.287Z,13.90
2019-05-22T02:13:03.014Z,13.80
2019-05-22T02:15:35.717Z,13.80
2019-05-22T02:18:09.948Z,13.80
2019-05-22T02:20:41.425Z,13.80
2019-05-22T02:23:12.674Z,13.90
2019-05-22T02:25:42.471Z,14.10
2019-05-22T02:28:13.084Z,13.90
2019-05-22T02:30:44.098Z,13.80
2019-05-22T02:33:15.373Z,13.90
2019-05-22T02:35:45.522Z,13.80
2019-05-22T02:38:15.581Z,13.70
2019-05-22T02:40:46.364Z,13.70
2019-05-22T02:43:16.675Z,13.60
2019-05-22T02:45:46.581Z,13.60
2019-05-22T02:48:18.237Z,13.60
2019-05-22T02:50:48.480Z,13.80
2019-05-22T02:53:18.620Z,13.90
2019-05-22T02:55:49.345Z,14.00
2019-05-22T02:58:20.306Z,14.10
2019-05-22T03:01:05.059Z,14.20
2019-05-22T03:03:36.751Z,14.20
2019-05-22T03:06:12.844Z,14.10
2019-05-22T03:09:10.345Z,14.10
2019-05-22T03:11:42.645Z,14.00
2019-05-22T03:14:13.787Z,14.00
2019-05-22T03:16:52.666Z,14.10
2019-05-22T03:19:43.981Z,14.10
2019-05-22T03:22:28.722Z,14.00
2019-05-22T03:25:02.041Z,13.90
2019-05-22T03:27:45.818Z,13.80
2019-05-22T03:30:27.146Z,13.80
2019-05-22T03:32:59.298Z,13.70
2019-05-22T03:35:30.379Z,13.80
2019-05-22T03:38:01.933Z,13.70
2019-05-22T03:40:32.091Z,13.70
2019-05-22T03:43:05.272Z,13.70
2019-05-22T03:45:36.224Z,13.80
2019-05-22T03:48:07.343Z,13.90
2019-05-22T03:50:37.560Z,13.90
2019-05-22T03:53:18.090Z,13.90
2019-05-22T03:55:49.069Z,14.00
2019-05-22T03:58:19.811Z,14.10
2019-05-22T04:00:51.849Z,14.00
2019-05-22T04:03:23.321Z,13.90
2019-05-22T04:05:53.492Z,13.80
2019-05-22T04:08:25.611Z,13.70
2019-05-22T04:11:07.550Z,13.70
2019-05-22T04:13:37.750Z,13.70
2019-05-22T04:16:10.255Z,13.60
2019-05-22T04:18:40.793Z,13.60
2019-05-22T04:21:10.460Z,13.50
2019-05-22T04:23:41.710Z,13.80
2019-05-22T04:26:13.889Z,13.60
2019-05-22T04:28:55.027Z,13.40
2019-05-22T04:31:55.657Z,13.30
2019-05-22T04:34:26.467Z,13.40
2019-05-22T04:36:56.568Z,13.70
2019-05-22T04:39:29.752Z,13.30
2019-05-22T04:42:01.109Z,13.40
2019-05-22T04:44:31.235Z,13.40
2019-05-22T04:47:01.426Z,13.50
2019-05-22T04:49:31.258Z,13.70
2019-05-22T04:52:04.499Z,13.60
2019-05-22T04:54:34.510Z,13.70
2019-05-22T04:57:05.206Z,13.50
2019-05-22T04:59:36.600Z,13.50
2019-05-22T05:02:08.136Z,13.50
2019-05-22T05:04:38.569Z,13.60
2019-05-22T05:07:08.339Z,13.60
2019-05-22T05:09:38.630Z,13.60
2019-05-22T05:12:10.436Z,13.60
2019-05-22T05:14:40.244Z,13.70
2019-05-22T05:17:10.274Z,13.70
2019-05-22T05:19:40.576Z,13.60
2019-05-22T05:22:11.676Z,13.60
2019-05-22T05:24:41.614Z,13.70
2019-05-22T05:27:11.944Z,13.80
2019-05-22T05:29:41.809Z,13.80
2019-05-22T05:32:11.928Z,13.90
2019-05-22T05:35:02.592Z,13.90
2019-05-22T05:37:32.211Z,13.80
2019-05-22T05:40:29.710Z,13.60
2019-05-22T05:43:00.362Z,13.60
2019-05-22T05:45:31.233Z,13.80
2019-05-22T05:48:02.489Z,13.40
2019-05-22T05:50:39.418Z,13.50
2019-05-22T05:53:08.932Z,13.50
2019-05-22T05:56:15.140Z,13.60
2019-05-22T05:58:45.327Z,13.70
2019-05-22T06:01:35.644Z,13.60
2019-05-22T06:04:06.642Z,13.70
2019-05-22T06:07:16.897Z,13.70
2019-05-22T06:09:50.663Z,13.60
2019-05-22T06:12:21.553Z,13.50
2019-05-22T06:14:51.840Z,13.50
2019-05-22T06:18:04.960Z,13.50
2019-05-22T06:20:36.560Z,13.50
2019-05-22T06:23:49.769Z,13.50
2019-05-22T06:26:51.350Z,13.30
2019-05-22T06:29:27.763Z,13.30
2019-05-22T06:32:32.740Z,13.30
2019-05-22T06:35:03.590Z,13.10
2019-05-22T06:37:39.995Z,13.10
2019-05-22T06:40:11.853Z,13.20
2019-05-22T06:42:43.879Z,13.20
2019-05-22T06:45:13.506Z,13.30
2019-05-22T06:47:43.103Z,13.20
2019-05-22T06:50:13.154Z,13.30
2019-05-22T06:52:43.373Z,13.20
2019-05-22T06:55:13.811Z,13.10
2019-05-22T06:57:43.885Z,13.10
2019-05-22T07:00:21.813Z,13.20
2019-05-22T07:02:51.541Z,13.10
2019-05-22T07:05:22.384Z,13.10
2019-05-22T07:07:51.961Z,12.90
2019-05-22T07:10:22.303Z,12.80
2019-05-22T07:12:51.892Z,12.80
2019-05-22T07:15:46.228Z,12.80
2019-05-22T07:18:17.942Z,12.80
2019-05-22T07:20:48.814Z,12.90
2019-05-22T07:23:22.857Z,12.90
2019-05-22T07:25:53.712Z,13.00
2019-05-22T07:28:24.021Z,13.10
2019-05-22T07:30:53.973Z,13.10
2019-05-22T07:33:24.618Z,13.30
2019-05-22T07:36:09.161Z,13.10
2019-05-22T07:38:26.819Z,13.10
2019-05-22T07:40:56.628Z,13.20
2019-05-22T07:43:26.434Z,13.30
2019-05-22T07:45:57.147Z,13.30
2019-05-22T07:48:29.887Z,13.40
2019-05-22T07:50:59.668Z,13.30
2019-05-22T07:53:30.123Z,13.20
2019-05-22T07:56:02.753Z,13.30
2019-05-22T07:58:33.506Z,13.20
2019-05-22T08:01:03.603Z,13.20
2019-05-22T08:03:34.364Z,13.10
2019-05-22T08:06:05.524Z,13.20
2019-05-22T08:08:37.416Z,13.10
2019-05-22T08:11:07.689Z,13.10
2019-05-22T08:13:37.849Z,13.30
2019-05-22T08:16:08.490Z,13.20
2019-05-22T08:18:41.620Z,13.10
2019-05-22T08:21:11.791Z,13.20
2019-05-22T08:23:41.795Z,13.30
2019-05-22T08:26:13.143Z,13.20
2019-05-22T08:28:43.074Z,13.50
2019-05-22T08:31:13.348Z,13.50
2019-05-22T08:33:43.178Z,13.30
2019-05-22T08:36:12.952Z,13.30
2019-05-22T08:38:44.684Z,13.30
2019-05-22T08:41:16.770Z,13.30
2019-05-22T08:44:13.582Z,13.30
2019-05-22T08:46:18.782Z,13.30
2019-05-22T08:48:49.458Z,13.20
2019-05-22T08:51:19.430Z,13.20
2019-05-22T08:53:49.868Z,13.40
2019-05-22T08:56:20.206Z,13.60
2019-05-22T08:58:51.440Z,13.60
2019-05-22T09:01:22.612Z,13.60
2019-05-22T09:03:52.489Z,13.80
2019-05-22T09:06:22.701Z,13.80
2019-05-22T09:08:52.388Z,13.90
2019-05-22T09:11:22.199Z,13.70
2019-05-22T09:13:51.964Z,13.60
2019-05-22T09:16:21.640Z,13.60
2019-05-22T09:18:51.454Z,13.50
2019-05-22T09:21:21.672Z,13.60
2019-05-22T09:23:51.272Z,13.80
2019-05-22T09:26:22.700Z,13.60
2019-05-22T09:28:52.567Z,13.60
2019-05-22T09:31:22.514Z,13.50
2019-05-22T09:33:52.399Z,13.60
2019-05-22T09:36:21.995Z,13.50
2019-05-22T09:38:52.579Z,13.40
2019-05-22T09:41:22.555Z,13.40
2019-05-22T09:43:52.485Z,13.50
2019-05-22T09:46:22.647Z,13.70
2019-05-22T09:48:52.730Z,14.00
2019-05-22T09:51:22.889Z,14.20
2019-05-22T09:53:53.921Z,14.60
2019-05-22T09:56:25.085Z,14.40
2019-05-22T09:58:55.408Z,14.40
2019-05-22T10:01:25.276Z,14.30
2019-05-22T10:03:54.994Z,14.20
2019-05-22T10:06:24.941Z,14.10
2019-05-22T10:08:54.580Z,14.20
2019-05-22T10:11:24.710Z,13.90
2019-05-22T10:13:54.828Z,13.70
2019-05-22T10:16:24.793Z,13.70
2019-05-22T10:18:54.710Z,13.50
2019-05-22T10:21:24.645Z,13.50
2019-05-22T10:23:54.414Z,13.50
2019-05-22T10:26:25.719Z,13.70
2019-05-22T10:28:56.152Z,14.00
2019-05-22T10:31:26.108Z,14.20
2019-05-22T10:33:55.667Z,14.40
2019-05-22T10:36:25.388Z,14.80
2019-05-22T10:38:55.251Z,15.00
2019-05-22T10:41:25.731Z,15.10
2019-05-22T10:43:55.827Z,15.40
2019-05-22T10:46:26.141Z,15.60
2019-05-22T10:48:56.390Z,15.90
2019-05-22T10:51:26.379Z,15.80
2019-05-22T10:53:56.313Z,15.70
2019-05-22T10:56:25.959Z,15.70
2019-05-22T10:58:55.891Z,15.50
2019-05-22T11:01:26.032Z,15.50
2019-05-22T11:03:56.330Z,15.40
2019-05-22T11:06:26.465Z,15.50
2019-05-22T11:08:56.355Z,15.30
2019-05-22T11:11:27.067Z,15.10
2019-05-22T11:14:01.725Z,15.00
2019-05-22T11:16:29.041Z,15.10
2019-05-22T11:18:58.789Z,14.90
2019-05-22T11:21:28.816Z,14.40
2019-05-22T11:23:58.721Z,14.60
2019-05-22T11:26:29.214Z,14.80
2019-05-22T11:28:58.925Z,15.00
2019-05-22T11:31:29.546Z,15.10
2019-05-22T11:33:59.361Z,15.30
2019-05-22T11:36:29.349Z,15.30
2019-05-22T11:38:59.176Z,15.50
2019-05-22T11:41:28.985Z,15.70
2019-05-22T11:43:58.821Z,16.10
2019-05-22T11:46:28.942Z,16.00
2019-05-22T11:48:58.541Z,16.00
2019-05-22T11:51:28.168Z,15.80
2019-05-22T11:54:08.642Z,15.80
2019-05-22T11:56:29.320Z,15.70
2019-05-22T11:58:58.944Z,15.70
2019-05-22T12:01:29.285Z,15.90
2019-05-22T12:04:01.226Z,16.20
2019-05-22T12:06:32.214Z,16.50
2019-05-22T12:09:02.091Z,16.70
2019-05-22T12:11:32.196Z,16.70
2019-05-22T12:14:02.847Z,16.90
2019-05-22T12:16:32.912Z,17.00
2019-05-22T12:19:02.619Z,17.00
2019-05-22T12:21:32.584Z,17.10
2019-05-22T12:24:02.436Z,17.20
2019-05-22T12:26:32.861Z,16.90
2019-05-22T12:29:02.608Z,17.00
2019-05-22T12:31:32.869Z,17.10
2019-05-22T12:34:03.949Z,17.00
2019-05-22T12:36:34.205Z,17.20
2019-05-22T12:39:04.517Z,17.40
2019-05-22T12:41:34.389Z,17.70
2019-05-22T12:44:04.630Z,17.90
2019-05-22T12:46:34.943Z,18.10
2019-05-22T12:49:08.833Z,18.20
2019-05-22T12:51:37.811Z,18.10
2019-05-22T12:54:08.030Z,18.00
2019-05-22T12:56:37.920Z,17.80
2019-05-22T12:59:08.652Z,17.80
2019-05-22T13:01:39.817Z,17.70
2019-05-22T13:04:10.497Z,17.80
2019-05-22T13:06:40.171Z,18.00
2019-05-22T13:09:11.785Z,18.10
2019-05-22T13:11:42.836Z,18.10
2019-05-22T13:14:12.902Z,18.20
2019-05-22T13:16:48.863Z,18.10
2019-05-22T13:19:15.209Z,18.10
2019-05-22T13:21:48.050Z,18.10
2019-05-22T13:24:23.343Z,18.20
2019-05-22T13:26:55.253Z,18.20
2019-05-22T13:29:28.362Z,18.10
2019-05-22T13:31:59.914Z,18.30
2019-05-22T13:34:32.061Z,18.70
2019-05-22T13:37:02.356Z,19.10
2019-05-22T13:39:32.042Z,19.50
2019-05-22T13:42:01.731Z,19.80
2019-05-22T13:44:32.981Z,19.90
2019-05-22T13:47:03.324Z,19.80
2019-05-22T13:49:35.245Z,20.20
2019-05-22T13:52:05.310Z,20.70
2019-05-22T13:54:35.409Z,21.20
2019-05-22T13:57:06.436Z,21.80
2019-05-22T13:59:36.270Z,21.90
2019-05-22T14:02:06.431Z,22.40
2019-05-22T14:04:36.429Z,22.70
2019-05-22T14:07:06.338Z,22.80
2019-05-22T14:09:36.498Z,23.00
2019-05-22T14:12:08.205Z,23.10
2019-05-22T14:14:38.343Z,23.30
2019-05-22T14:17:08.350Z,24.70
2019-05-22T14:19:38.775Z,26.20
2019-05-22T14:22:08.942Z,26.70
2019-05-22T14:24:38.536Z,27.80
2019-05-22T14:27:08.203Z,28.10
2019-05-22T14:29:37.792Z,27.00
2019-05-22T14:32:10.128Z,25.80
2019-05-22T14:34:40.238Z,26.00
2019-05-22T14:37:11.084Z,26.70
2019-05-22T14:39:41.676Z,25.80
2019-05-22T14:42:12.291Z,24.00
2019-05-22T14:44:42.131Z,24.30
2019-05-22T14:47:15.401Z,24.90
2019-05-22T14:49:43.503Z,25.00
2019-05-22T14:52:14.150Z,24.90
2019-05-22T14:54:43.997Z,25.10
2019-05-22T14:57:13.679Z,24.90
2019-05-22T14:59:43.739Z,24.20
2019-05-22T15:02:14.141Z,23.80
2019-05-22T15:04:43.769Z,23.10
2019-05-22T15:07:13.478Z,22.70
2019-05-22T15:09:43.376Z,22.00
2019-05-22T15:12:13.202Z,21.70
2019-05-22T15:14:43.142Z,21.70
2019-05-22T15:17:28.597Z,21.40
2019-05-22T15:19:45.053Z,20.90
2019-05-22T15:22:16.607Z,20.70
2019-05-22T15:24:47.187Z,20.40
2019-05-22T15:27:17.840Z,20.30
2019-05-22T15:29:47.458Z,20.20
2019-05-22T15:32:17.533Z,20.30
2019-05-22T15:34:47.564Z,20.40
2019-05-22T15:37:19.502Z,20.40
2019-05-22T15:39:49.670Z,20.40
2019-05-22T15:42:38.191Z,20.30
2019-05-22T15:45:12.427Z,20.30
2019-05-22T15:47:54.809Z,20.30
2019-05-22T15:50:17.640Z,20.20
2019-05-22T15:52:52.129Z,20.50
2019-05-22T15:55:24.857Z,20.80
2019-05-22T15:57:57.647Z,20.70
2019-05-22T16:00:30.529Z,20.90
2019-05-22T16:03:02.402Z,20.90
2019-05-22T16:05:33.253Z,20.70
2019-05-22T16:08:03.236Z,20.50
2019-05-22T16:10:33.793Z,20.40
2019-05-22T16:13:04.918Z,20.10
2019-05-22T16:15:40.327Z,20.20
2019-05-22T16:18:12.454Z,20.10
2019-05-22T16:20:43.290Z,20.20
2019-05-22T16:23:13.235Z,20.40
2019-05-22T16:25:43.299Z,20.40
2019-05-22T16:28:14.056Z,20.50
2019-05-22T16:30:44.709Z,20.70
2019-05-22T16:33:16.083Z,20.80
2019-05-22T16:35:45.910Z,20.90
2019-05-22T16:38:15.982Z,21.00
2019-05-22T16:40:45.833Z,21.00
2019-05-22T16:43:15.675Z,21.00
2019-05-22T16:45:45.470Z,21.00
2019-05-22T16:48:28.399Z,21.10
2019-05-22T16:50:48.313Z,21.20
2019-05-22T16:53:19.492Z,21.20
2019-05-22T16:55:49.695Z,21.00
2019-05-22T16:58:19.935Z,20.90
2019-05-22T17:00:50.273Z,20.70
2019-05-22T17:03:20.436Z,20.80
2019-05-22T17:05:50.359Z,21.00
2019-05-22T17:08:22.033Z,21.10
2019-05-22T17:10:53.486Z,21.10
2019-05-22T17:13:24.149Z,21.10
2019-05-22T17:15:54.099Z,21.00
2019-05-22T17:18:24.586Z,21.10
2019-05-22T17:20:55.401Z,21.30
2019-05-22T17:23:25.642Z,21.80
2019-05-22T17:25:57.477Z,22.30
2019-05-22T17:29:12.910Z,22.60
2019-05-22T17:31:43.562Z,23.30
2019-05-22T17:34:30.648Z,24.30
2019-05-22T17:37:01.015Z,25.20
2019-05-22T17:39:35.735Z,26.60
2019-05-22T17:42:08.026Z,27.30
2019-05-22T17:44:40.152Z,27.90
2019-05-22T17:47:12.222Z,28.80
2019-05-22T17:49:43.371Z,29.70
2019-05-22T17:52:14.882Z,30.00
2019-05-22T17:54:47.588Z,29.40
2019-05-22T17:57:18.105Z,28.70
2019-05-22T17:59:48.012Z,27.90
2019-05-22T18:02:19.701Z,27.20
2019-05-22T18:04:51.130Z,26.50
2019-05-22T18:07:23.143Z,26.00
2019-05-22T18:09:53.576Z,25.80
2019-05-22T18:12:23.164Z,25.80
2019-05-22T18:14:53.519Z,25.50
2019-05-22T18:17:23.509Z,25.10
2019-05-22T18:19:53.723Z,24.70
2019-05-22T18:22:23.988Z,24.30
2019-05-22T18:24:53.989Z,23.90
2019-05-22T18:27:25.423Z,23.70
2019-05-22T18:29:55.799Z,23.30
2019-05-22T18:32:25.709Z,23.10
2019-05-22T18:34:55.444Z,22.80
2019-05-22T18:37:25.690Z,22.50
2019-05-22T18:39:55.581Z,22.10
2019-05-22T18:42:25.273Z,21.70
2019-05-22T18:44:54.978Z,21.50
2019-05-22T18:47:24.790Z,21.30
2019-05-22T18:49:54.607Z,21.10
2019-05-22T18:52:39.895Z,21.00
2019-05-22T18:54:56.072Z,20.90
2019-05-22T18:57:26.036Z,20.80
2019-05-22T19:00:02.942Z,20.60
2019-05-22T19:02:27.812Z,20.50
2019-05-22T19:04:57.467Z,20.40
2019-05-22T19:07:27.380Z,20.30
2019-05-22T19:09:57.232Z,20.20
2019-05-22T19:12:27.494Z,20.10
2019-05-22T19:14:57.119Z,20.00
2019-05-22T19:17:27.166Z,19.90
2019-05-22T19:19:57.301Z,19.80
2019-05-22T19:22:27.684Z,19.70
2019-05-22T19:24:57.332Z,19.60
2019-05-22T19:27:27.000Z,19.50
2019-05-22T19:29:56.892Z,19.40
2019-05-22T19:32:26.729Z,19.30
2019-05-22T19:34:56.447Z,19.30
2019-05-22T19:37:26.047Z,19.20
2019-05-22T19:39:56.021Z,19.10
2019-05-22T19:42:25.825Z,19.10
2019-05-22T19:44:55.802Z,19.00
2019-05-22T19:47:25.645Z,18.90
2019-05-22T19:49:55.367Z,18.80
2019-05-22T19:52:40.421Z,18.80
2019-05-22T19:54:58.911Z,18.70
2019-05-22T19:57:28.729Z,18.60
2019-05-22T19:59:58.579Z,18.50
2019-05-22T20:02:28.861Z,18.50
2019-05-22T20:04:58.907Z,18.40
2019-05-22T20:07:29.153Z,18.30
2019-05-22T20:09:58.835Z,18.30
2019-05-22T20:12:29.512Z,18.20
2019-05-22T20:14:59.536Z,18.20
2019-05-22T20:17:29.330Z,18.10
2019-05-22T20:19:59.105Z,18.00
2019-05-22T20:22:29.561Z,17.80
2019-05-22T20:24:59.387Z,17.60
2019-05-22T20:27:29.438Z,17.60
2019-05-22T20:29:59.362Z,17.50
2019-05-22T20:32:29.800Z,17.50
2019-05-22T20:35:00.065Z,17.40
2019-05-22T20:37:32.394Z,17.10
2019-05-22T20:40:03.132Z,17.30
2019-05-22T20:42:33.981Z,17.30
2019-05-22T20:45:05.414Z,17.20
2019-05-22T20:47:38.759Z,17.20
2019-05-22T20:50:11.326Z,17.10
2019-05-22T20:52:41.012Z,17.10
2019-05-22T20:55:12.357Z,17.00
2019-05-22T20:57:43.925Z,16.90
2019-05-22T21:00:15.016Z,16.80
2019-05-22T21:02:45.023Z,16.70
2019-05-22T21:05:18.336Z,16.70
2019-05-22T21:07:51.059Z,16.60
2019-05-22T21:10:24.512Z,16.60
2019-05-22T21:12:56.610Z,16.50
2019-05-22T21:15:28.060Z,16.50
2019-05-22T21:17:59.585Z,16.40
2019-05-22T21:20:31.147Z,16.40
2019-05-22T21:23:01.364Z,16.40
2019-05-22T21:25:31.429Z,16.30
2019-05-22T21:28:01.548Z,16.20
2019-05-22T21:30:32.020Z,16.20
2019-05-22T21:33:02.383Z,16.10
2019-05-22T21:35:32.279Z,16.10
2019-05-22T21:38:03.504Z,16.00
2019-05-22T21:40:33.667Z,16.00
2019-05-22T21:43:04.003Z,15.90
2019-05-22T21:45:34.430Z,15.90
2019-05-22T21:48:06.476Z,15.80
2019-05-22T21:50:36.132Z,15.80
2019-05-22T21:53:10.559Z,15.70
2019-05-22T21:55:45.438Z,15.70
2019-05-22T21:58:13.655Z,15.70
2019-05-22T22:01:20.227Z,15.60
2019-05-22T22:04:01.149Z,15.50
2019-05-22T22:06:33.183Z,15.50
2019-05-22T22:09:03.825Z,15.50
2019-05-22T22:11:34.693Z,15.50
2019-05-22T22:14:04.982Z,15.40
2019-05-22T22:16:34.664Z,15.40
2019-05-22T22:19:05.051Z,15.40
2019-05-22T22:21:35.589Z,15.30
2019-05-22T22:24:05.980Z,15.30
2019-05-22T22:26:36.655Z,15.30
2019-05-22T22:29:08.024Z,15.20
2019-05-22T22:31:38.481Z,15.20
2019-05-22T22:34:25.625Z,15.10
2019-05-22T22:36:57.382Z,15.10
2019-05-22T22:39:27.819Z,15.10
2019-05-22T22:41:59.762Z,15.10
2019-05-22T22:44:30.952Z,15.00
2019-05-22T22:47:06.945Z,15.00
2019-05-22T22:49:37.925Z,15.00
2019-05-22T22:52:07.903Z,15.00
2019-05-22T22:54:38.616Z,14.90
2019-05-22T22:57:09.468Z,14.90
2019-05-22T22:59:39.976Z,14.90
2019-05-22T23:02:12.924Z,14.80
2019-05-22T23:04:45.099Z,14.80
2019-05-22T23:07:16.383Z,14.80
2019-05-22T23:09:46.221Z,14.70
2019-05-22T23:12:17.756Z,14.70
2019-05-22T23:14:52.317Z,14.60
2019-05-22T23:17:22.436Z,14.60
2019-05-22T23:19:50.280Z,14.60
2019-05-22T23:22:24.298Z,14.60
2019-05-22T23:24:56.096Z,14.70
2019-05-22T23:27:27.309Z,14.60
2019-05-22T23:29:58.052Z,14.60
2019-05-22T23:32:28.402Z,14.60
2019-05-22T23:34:59.546Z,14.50
2019-05-22T23:37:29.441Z,14.50
2019-05-22T23:40:01.830Z,14.40
2019-05-22T23:42:36.286Z,14.40
2019-05-22T23:45:10.574Z,14.40
2019-05-22T23:48:14.952Z,14.30
2019-05-22T23:50:47.509Z,14.20
2019-05-22T23:53:18.651Z,14.30
2019-05-22T23:55:48.763Z,14.20
2019-05-22T23:58:20.204Z,14.20
